sensor_id;sensor_type;location;lat;lon;timestamp;pressure;altitude;pressure_sealevel;temperature;humidity
18784;BME280;9520;50.954;6.968;2022-11-12T00:00:36;102575.66;;;16.74;48.19
18784;BME280;9520;50.954;6.968;2022-11-12T00:01:17;102562.38;;;16.71;47.98
18784;BME280;9520;50.954;6.968;2022-11-12T00:01:58;102565.94;;;16.68;47.83
18784;BME280;9520;50.954;6.968;2022-11-12T00:02:38;102573.03;;;16.71;47.87
18784;BME280;9520;50.954;6.968;2022-11-12T00:03:19;102572.16;;;16.72;47.91
18784;BME280;9520;50.954;6.968;2022-11-12T00:04:00;102574.78;;;16.75;47.92
18784;BME280;9520;50.954;6.968;2022-11-12T00:04:41;102575.66;;;16.75;47.84
18784;BME280;9520;50.954;6.968;2022-11-12T00:05:22;102569.44;;;16.75;47.81
18784;BME280;9520;50.954;6.968;2022-11-12T00:06:02;102567.66;;;16.74;47.77
18784;BME280;9520;50.954;6.968;2022-11-12T00:06:44;102567.66;;;16.74;47.89
18784;BME280;9520;50.954;6.968;2022-11-12T00:07:25;102569.47;;;16.72;47.74
18784;BME280;9520;50.954;6.968;2022-11-12T00:08:06;102572.09;;;16.76;47.67
18784;BME280;9520;50.954;6.968;2022-11-12T00:08:47;102573.84;;;16.77;47.50
18784;BME280;9520;50.954;6.968;2022-11-12T00:09:28;102569.41;;;16.78;47.50
18784;BME280;9520;50.954;6.968;2022-11-12T00:10:09;102571.22;;;16.73;47.55
18784;BME280;9520;50.954;6.968;2022-11-12T00:10:49;102574.88;;;16.67;47.65
18784;BME280;9520;50.954;6.968;2022-11-12T00:11:30;102546.56;;;16.53;47.36
18784;BME280;9520;50.954;6.968;2022-11-12T00:12:10;102568.66;;;16.64;47.66
18784;BME280;9520;50.954;6.968;2022-11-12T00:12:51;102574.03;;;16.59;47.75
18784;BME280;9520;50.954;6.968;2022-11-12T00:13:32;102575.81;;;16.59;47.78
18784;BME280;9520;50.954;6.968;2022-11-12T00:14:13;102580.25;;;16.60;47.79
18784;BME280;9520;50.954;6.968;2022-11-12T00:14:54;102568.69;;;16.61;47.96
18784;BME280;9520;50.954;6.968;2022-11-12T00:15:34;102575.81;;;16.60;47.66
18784;BME280;9520;50.954;6.968;2022-11-12T00:16:15;102578.47;;;16.62;47.52
18784;BME280;9520;50.954;6.968;2022-11-12T00:16:55;102572.28;;;16.57;47.89
18784;BME280;9520;50.954;6.968;2022-11-12T00:17:36;102574.03;;;16.59;47.64
18784;BME280;9520;50.954;6.968;2022-11-12T00:18:17;102577.59;;;16.60;47.80
18784;BME280;9520;50.954;6.968;2022-11-12T00:18:57;102577.59;;;16.61;47.86
18784;BME280;9520;50.954;6.968;2022-11-12T00:19:38;102582.03;;;16.61;47.50
18784;BME280;9520;50.954;6.968;2022-11-12T00:20:19;102565.16;;;16.59;47.59
18784;BME280;9520;50.954;6.968;2022-11-12T00:20:59;102571.38;;;16.61;47.48
18784;BME280;9520;50.954;6.968;2022-11-12T00:21:41;102579.31;;;16.64;47.66
18784;BME280;9520;50.954;6.968;2022-11-12T00:22:22;102576.66;;;16.67;47.46
18784;BME280;9520;50.954;6.968;2022-11-12T00:23:03;102579.28;;;16.68;47.39
18784;BME280;9520;50.954;6.968;2022-11-12T00:23:43;102572.19;;;16.67;47.53
18784;BME280;9520;50.954;6.968;2022-11-12T00:24:24;102568.59;;;16.68;47.87
18784;BME280;9520;50.954;6.968;2022-11-12T00:25:06;102571.38;;;16.61;47.60
18784;BME280;9520;50.954;6.968;2022-11-12T00:25:46;102574.00;;;16.64;47.57
18784;BME280;9520;50.954;6.968;2022-11-12T00:26:27;102574.88;;;16.63;47.47
18784;BME280;9520;50.954;6.968;2022-11-12T00:27:08;102575.81;;;16.62;47.57
18784;BME280;9520;50.954;6.968;2022-11-12T00:27:48;102567.78;;;16.65;47.69
18784;BME280;9520;50.954;6.968;2022-11-12T00:28:30;102573.09;;;16.66;47.34
18784;BME280;9520;50.954;6.968;2022-11-12T00:29:16;102574.91;;;16.61;47.66
18784;BME280;9520;50.954;6.968;2022-11-12T00:29:58;102570.50;;;16.56;47.57
18784;BME280;9520;50.954;6.968;2022-11-12T00:30:39;102576.66;;;16.58;47.41
18784;BME280;9520;50.954;6.968;2022-11-12T00:31:19;102580.25;;;16.57;47.41
18784;BME280;9520;50.954;6.968;2022-11-12T00:32:00;102580.25;;;16.61;47.47
18784;BME280;9520;50.954;6.968;2022-11-12T00:32:41;102578.44;;;16.65;47.53
18784;BME280;9520;50.954;6.968;2022-11-12T00:33:21;102587.34;;;16.61;47.49
18784;BME280;9520;50.954;6.968;2022-11-12T00:34:02;102588.25;;;16.60;47.56
18784;BME280;9520;50.954;6.968;2022-11-12T00:34:43;102584.69;;;16.59;47.42
18784;BME280;9520;50.954;6.968;2022-11-12T00:35:24;102590.91;;;16.58;47.67
18784;BME280;9520;50.954;6.968;2022-11-12T00:36:05;102580.25;;;16.54;47.64
18784;BME280;9520;50.954;6.968;2022-11-12T00:36:45;102582.03;;;16.55;47.98
18784;BME280;9520;50.954;6.968;2022-11-12T00:37:27;102582.94;;;16.55;47.59
18784;BME280;9520;50.954;6.968;2022-11-12T00:38:08;102589.19;;;16.53;47.42
18784;BME280;9520;50.954;6.968;2022-11-12T00:38:48;102588.25;;;16.57;47.34
18784;BME280;9520;50.954;6.968;2022-11-12T00:39:29;102579.38;;;16.56;47.29
18784;BME280;9520;50.954;6.968;2022-11-12T00:40:10;102586.47;;;16.56;47.62
18784;BME280;9520;50.954;6.968;2022-11-12T00:40:51;102585.59;;;16.55;47.30
18784;BME280;9520;50.954;6.968;2022-11-12T00:41:32;102591.78;;;16.60;47.64
18784;BME280;9520;50.954;6.968;2022-11-12T00:42:13;102593.56;;;16.60;47.39
18784;BME280;9520;50.954;6.968;2022-11-12T00:42:53;102565.31;;;16.39;47.29
18784;BME280;9520;50.954;6.968;2022-11-12T00:43:37;102574.13;;;16.44;47.39
18784;BME280;9520;50.954;6.968;2022-11-12T00:44:19;102581.19;;;16.50;47.23
18784;BME280;9520;50.954;6.968;2022-11-12T00:45:00;102597.97;;;16.58;47.24
18784;BME280;9520;50.954;6.968;2022-11-12T00:45:41;102596.25;;;16.57;47.13
18784;BME280;9520;50.954;6.968;2022-11-12T00:46:22;102590.16;;;16.38;47.43
18784;BME280;9520;50.954;6.968;2022-11-12T00:47:03;102598.13;;;16.46;47.60
18784;BME280;9520;50.954;6.968;2022-11-12T00:47:43;102591.00;;;16.43;47.52
18784;BME280;9520;50.954;6.968;2022-11-12T00:48:24;102593.63;;;16.52;47.33
18784;BME280;9520;50.954;6.968;2022-11-12T00:49:05;102594.50;;;16.53;47.09
18784;BME280;9520;50.954;6.968;2022-11-12T00:49:45;102595.38;;;16.53;47.31
18784;BME280;9520;50.954;6.968;2022-11-12T00:50:26;102599.81;;;16.56;47.13
18784;BME280;9520;50.954;6.968;2022-11-12T00:51:08;102593.63;;;16.52;47.28
18784;BME280;9520;50.954;6.968;2022-11-12T00:51:49;102591.91;;;16.45;47.20
18784;BME280;9520;50.954;6.968;2022-11-12T00:52:30;102599.88;;;16.47;47.21
18784;BME280;9520;50.954;6.968;2022-11-12T00:53:11;102594.53;;;16.48;47.42
18784;BME280;9520;50.954;6.968;2022-11-12T00:53:52;102592.75;;;16.49;47.03
18784;BME280;9520;50.954;6.968;2022-11-12T00:54:32;102603.53;;;16.36;47.31
18784;BME280;9520;50.954;6.968;2022-11-12T00:55:13;102596.41;;;16.35;47.51
18784;BME280;9520;50.954;6.968;2022-11-12T00:55:58;102604.38;;;16.40;47.21
18784;BME280;9520;50.954;6.968;2022-11-12T00:56:39;102600.88;;;16.35;47.18
18784;BME280;9520;50.954;6.968;2022-11-12T00:57:20;102597.31;;;16.34;47.38
18784;BME280;9520;50.954;6.968;2022-11-12T00:58:00;102599.94;;;16.39;47.30
18784;BME280;9520;50.954;6.968;2022-11-12T00:58:41;102601.69;;;16.41;47.15
18784;BME280;9520;50.954;6.968;2022-11-12T00:59:22;102590.16;;;16.38;46.91
18784;BME280;9520;50.954;6.968;2022-11-12T01:00:03;102602.63;;;16.37;47.13
18784;BME280;9520;50.954;6.968;2022-11-12T01:00:45;102591.94;;;16.39;47.30
18784;BME280;9520;50.954;6.968;2022-11-12T01:01:26;102597.31;;;16.37;47.24
18784;BME280;9520;50.954;6.968;2022-11-12T01:02:07;102598.16;;;16.41;47.07
18784;BME280;9520;50.954;6.968;2022-11-12T01:02:48;102596.38;;;16.38;47.23
18784;BME280;9520;50.954;6.968;2022-11-12T01:03:30;102594.69;;;16.31;47.17
18784;BME280;9520;50.954;6.968;2022-11-12T01:04:11;102599.09;;;16.34;47.02
18784;BME280;9520;50.954;6.968;2022-11-12T01:04:52;102608.88;;;16.30;47.07
18784;BME280;9520;50.954;6.968;2022-11-12T01:05:32;102600.91;;;16.30;47.09
18784;BME280;9520;50.954;6.968;2022-11-12T01:06:15;102605.41;;;16.22;47.22
18784;BME280;9520;50.954;6.968;2022-11-12T01:06:56;102601.88;;;16.20;47.46
18784;BME280;9520;50.954;6.968;2022-11-12T01:07:37;102599.19;;;16.22;47.31
18784;BME280;9520;50.954;6.968;2022-11-12T01:08:19;102601.00;;;16.15;47.56
18784;BME280;9520;50.954;6.968;2022-11-12T01:08:59;102602.78;;;16.18;47.57
18784;BME280;9520;50.954;6.968;2022-11-12T01:09:41;102600.13;;;16.16;47.50
18784;BME280;9520;50.954;6.968;2022-11-12T01:10:21;102597.47;;;16.15;47.52
18784;BME280;9520;50.954;6.968;2022-11-12T01:11:06;102593.91;;;16.14;47.55
18784;BME280;9520;50.954;6.968;2022-11-12T01:11:48;102593.91;;;16.16;47.48
18784;BME280;9520;50.954;6.968;2022-11-12T01:12:29;102596.53;;;16.20;47.31
18784;BME280;9520;50.954;6.968;2022-11-12T01:13:09;102592.13;;;16.16;47.25
18784;BME280;9520;50.954;6.968;2022-11-12T01:13:53;102593.06;;;16.12;47.50
18784;BME280;9520;50.954;6.968;2022-11-12T01:15:18;102598.38;;;16.12;47.38
18784;BME280;9520;50.954;6.968;2022-11-12T01:15:58;102601.00;;;16.15;47.37
18784;BME280;9520;50.954;6.968;2022-11-12T01:16:44;102591.28;;;16.10;47.38
18784;BME280;9520;50.954;6.968;2022-11-12T01:17:24;102594.88;;;16.04;47.54
18784;BME280;9520;50.954;6.968;2022-11-12T01:18:06;102594.91;;;16.01;47.56
18784;BME280;9520;50.954;6.968;2022-11-12T01:18:47;102575.53;;;15.81;47.61
18784;BME280;9520;50.954;6.968;2022-11-12T01:19:31;102584.31;;;15.93;47.39
18784;BME280;9520;50.954;6.968;2022-11-12T01:20:12;102589.66;;;15.92;47.51
18784;BME280;9520;50.954;6.968;2022-11-12T01:20:52;102600.25;;;15.95;47.58
18784;BME280;9520;50.954;6.968;2022-11-12T01:21:36;102597.66;;;15.86;47.75
18784;BME280;9520;50.954;6.968;2022-11-12T01:22:18;102598.56;;;15.86;48.09
18784;BME280;9520;50.954;6.968;2022-11-12T01:22:59;102596.78;;;15.84;47.91
18784;BME280;9520;50.954;6.968;2022-11-12T01:23:41;102602.09;;;15.84;47.85
18784;BME280;9520;50.954;6.968;2022-11-12T01:24:21;102592.34;;;15.87;47.93
18784;BME280;9520;50.954;6.968;2022-11-12T01:25:02;102594.97;;;15.90;47.72
18784;BME280;9520;50.954;6.968;2022-11-12T01:25:43;102594.09;;;15.93;47.86
18784;BME280;9520;50.954;6.968;2022-11-12T01:26:24;102599.41;;;15.90;47.62
18784;BME280;9520;50.954;6.968;2022-11-12T01:27:07;102601.16;;;15.94;47.54
18784;BME280;9520;50.954;6.968;2022-11-12T01:27:47;102595.81;;;15.95;47.78
18784;BME280;9520;50.954;6.968;2022-11-12T01:28:29;102593.19;;;15.92;47.55
18784;BME280;9520;50.954;6.968;2022-11-12T01:29:09;102586.16;;;15.81;47.65
18784;BME280;9520;50.954;6.968;2022-11-12T01:29:49;102596.75;;;15.93;47.59
18784;BME280;9520;50.954;6.968;2022-11-12T01:30:31;102594.94;;;15.95;47.77
18784;BME280;9520;50.954;6.968;2022-11-12T01:31:13;102594.94;;;15.96;47.32
18784;BME280;9520;50.954;6.968;2022-11-12T01:31:54;102598.50;;;15.97;47.52
18784;BME280;9520;50.954;6.968;2022-11-12T01:32:35;102584.31;;;15.92;47.42
18784;BME280;9520;50.954;6.968;2022-11-12T01:33:17;102595.78;;;15.98;47.45
18784;BME280;9520;50.954;6.968;2022-11-12T01:33:59;102591.38;;;15.97;47.33
18784;BME280;9520;50.954;6.968;2022-11-12T01:34:40;102589.59;;;15.99;47.55
18784;BME280;9520;50.954;6.968;2022-11-12T01:35:21;102587.84;;;15.97;47.43
18784;BME280;9520;50.954;6.968;2022-11-12T01:36:01;102596.66;;;16.07;47.43
18784;BME280;9520;50.954;6.968;2022-11-12T01:36:42;102588.75;;;15.93;47.53
18784;BME280;9520;50.954;6.968;2022-11-12T01:37:23;102599.34;;;16.01;47.30
18784;BME280;9520;50.954;6.968;2022-11-12T01:38:04;102602.91;;;15.99;47.42
18784;BME280;9520;50.954;6.968;2022-11-12T01:38:45;102570.19;;;15.79;47.49
18784;BME280;9520;50.954;6.968;2022-11-12T01:39:27;102590.53;;;15.89;47.45
18784;BME280;9520;50.954;6.968;2022-11-12T01:40:08;102593.25;;;15.82;47.86
18784;BME280;9520;50.954;6.968;2022-11-12T01:40:49;102600.34;;;15.80;47.64
18784;BME280;9520;50.954;6.968;2022-11-12T01:41:32;102599.50;;;15.76;47.83
18784;BME280;9520;50.954;6.968;2022-11-12T01:42:12;102597.75;;;15.69;47.84
18784;BME280;9520;50.954;6.968;2022-11-12T01:42:54;102596.88;;;15.73;48.01
18784;BME280;9520;50.954;6.968;2022-11-12T01:43:34;102596.84;;;15.76;47.95
18784;BME280;9520;50.954;6.968;2022-11-12T01:44:15;102589.78;;;15.74;47.82
18784;BME280;9520;50.954;6.968;2022-11-12T01:44:58;102593.25;;;15.79;47.72
18784;BME280;9520;50.954;6.968;2022-11-12T01:45:41;102586.16;;;15.81;47.54
18784;BME280;9520;50.954;6.968;2022-11-12T01:46:27;102597.69;;;15.80;47.67
18784;BME280;9520;50.954;6.968;2022-11-12T01:47:12;102589.72;;;15.83;47.66
18784;BME280;9520;50.954;6.968;2022-11-12T01:47:54;102572.09;;;15.64;47.74
18784;BME280;9520;50.954;6.968;2022-11-12T01:48:38;102595.06;;;15.77;47.67
18784;BME280;9520;50.954;6.968;2022-11-12T01:49:23;102591.47;;;15.79;47.57
18784;BME280;9520;50.954;6.968;2022-11-12T01:50:14;102591.47;;;15.81;47.76
18784;BME280;9520;50.954;6.968;2022-11-12T01:50:57;102593.25;;;15.82;47.66
18784;BME280;9520;50.954;6.968;2022-11-12T01:51:40;102588.81;;;15.81;47.60
18784;BME280;9520;50.954;6.968;2022-11-12T01:52:23;102581.75;;;15.77;47.52
18784;BME280;9520;50.954;6.968;2022-11-12T01:53:10;102595.03;;;15.81;47.51
18784;BME280;9520;50.954;6.968;2022-11-12T01:53:55;102583.53;;;15.75;47.51
18784;BME280;9520;50.954;6.968;2022-11-12T01:54:38;102594.22;;;15.72;47.81
18784;BME280;9520;50.954;6.968;2022-11-12T01:55:23;102597.75;;;15.72;47.74
18784;BME280;9520;50.954;6.968;2022-11-12T01:56:06;102595.06;;;15.75;47.74
18784;BME280;9520;50.954;6.968;2022-11-12T01:56:46;102588.84;;;15.78;47.67
18784;BME280;9520;50.954;6.968;2022-11-12T01:57:32;102584.41;;;15.78;47.55
18784;BME280;9520;50.954;6.968;2022-11-12T01:58:16;102582.63;;;15.80;47.75
18784;BME280;9520;50.954;6.968;2022-11-12T01:59:03;102590.59;;;15.80;47.53
18784;BME280;9520;50.954;6.968;2022-11-12T01:59:47;102591.50;;;15.78;47.63
18784;BME280;9520;50.954;6.968;2022-11-12T02:00:30;102582.66;;;15.77;47.57
18784;BME280;9520;50.954;6.968;2022-11-12T02:01:10;102582.66;;;15.74;47.51
18784;BME280;9520;50.954;6.968;2022-11-12T02:01:50;102595.06;;;15.77;47.55
18784;BME280;9520;50.954;6.968;2022-11-12T02:02:32;102596.84;;;15.78;47.56
18784;BME280;9520;50.954;6.968;2022-11-12T02:03:17;102588.84;;;15.78;47.50
18784;BME280;9520;50.954;6.968;2022-11-12T02:03:58;102597.75;;;15.74;47.35
18784;BME280;9520;50.954;6.968;2022-11-12T02:04:41;102600.44;;;15.65;47.69
18784;BME280;9520;50.954;6.968;2022-11-12T02:05:24;102595.13;;;15.65;47.73
18784;BME280;9520;50.954;6.968;2022-11-12T02:06:09;102591.59;;;15.63;47.66
18784;BME280;9520;50.954;6.968;2022-11-12T02:06:52;102601.28;;;15.70;47.94
18784;BME280;9520;50.954;6.968;2022-11-12T02:07:35;102602.19;;;15.72;47.81
18784;BME280;9520;50.954;6.968;2022-11-12T02:08:20;102593.31;;;15.73;47.76
18784;BME280;9520;50.954;6.968;2022-11-12T02:09:01;102584.50;;;15.62;47.69
18784;BME280;9520;50.954;6.968;2022-11-12T02:09:42;102595.94;;;15.74;47.67
18784;BME280;9520;50.954;6.968;2022-11-12T02:10:24;102595.06;;;15.75;47.48
18784;BME280;9520;50.954;6.968;2022-11-12T02:11:11;102594.16;;;15.81;47.43
18784;BME280;9520;50.954;6.968;2022-11-12T02:11:51;102588.81;;;15.81;47.45
18784;BME280;9520;50.954;6.968;2022-11-12T02:12:32;102594.25;;;15.63;47.67
18784;BME280;9520;50.954;6.968;2022-11-12T02:13:31;102597.78;;;15.65;47.73
18784;BME280;9520;50.954;6.968;2022-11-12T02:14:29;102591.56;;;15.69;47.61
18784;BME280;9520;50.954;6.968;2022-11-12T02:15:11;102596.03;;;15.61;47.73
18784;BME280;9520;50.954;6.968;2022-11-12T02:15:52;102595.19;;;15.59;47.89
18784;BME280;9520;50.954;6.968;2022-11-12T02:16:35;102590.75;;;15.58;47.83
18784;BME280;9520;50.954;6.968;2022-11-12T02:17:16;102587.22;;;15.54;47.87
18784;BME280;9520;50.954;6.968;2022-11-12T02:17:57;102580.13;;;15.53;47.78
18784;BME280;9520;50.954;6.968;2022-11-12T02:18:37;102586.31;;;15.55;47.92
18784;BME280;9520;50.954;6.968;2022-11-12T02:19:18;102589.84;;;15.55;47.91
18784;BME280;9520;50.954;6.968;2022-11-12T02:19:59;102583.63;;;15.50;48.04
18784;BME280;9520;50.954;6.968;2022-11-12T02:20:41;102588.97;;;15.57;47.87
18784;BME280;9520;50.954;6.968;2022-11-12T02:21:23;102588.09;;;15.45;48.08
18784;BME280;9520;50.954;6.968;2022-11-12T02:22:03;102585.44;;;15.45;48.18
18784;BME280;9520;50.954;6.968;2022-11-12T02:22:44;102589.88;;;15.46;48.22
18784;BME280;9520;50.954;6.968;2022-11-12T02:23:25;102589.88;;;15.54;48.07
18784;BME280;9520;50.954;6.968;2022-11-12T02:24:29;102588.06;;;15.56;48.00
18784;BME280;9520;50.954;6.968;2022-11-12T02:25:11;102582.75;;;15.58;48.04
18784;BME280;9520;50.954;6.968;2022-11-12T02:25:53;102588.06;;;15.61;47.86
18784;BME280;9520;50.954;6.968;2022-11-12T02:26:36;102598.69;;;15.59;47.83
18784;BME280;9520;50.954;6.968;2022-11-12T02:27:19;102596.06;;;15.56;47.74
18784;BME280;9520;50.954;6.968;2022-11-12T02:28:00;102596.06;;;15.56;47.83
18784;BME280;9520;50.954;6.968;2022-11-12T02:28:41;102593.41;;;15.58;47.91
18784;BME280;9520;50.954;6.968;2022-11-12T02:29:23;102589.88;;;15.54;47.95
18784;BME280;9520;50.954;6.968;2022-11-12T02:30:04;102599.59;;;15.57;47.88
18784;BME280;9520;50.954;6.968;2022-11-12T02:30:47;102605.78;;;15.60;47.92
18784;BME280;9520;50.954;6.968;2022-11-12T02:31:28;102590.72;;;15.54;47.76
18784;BME280;9520;50.954;6.968;2022-11-12T02:32:08;102604.91;;;15.63;47.76
18784;BME280;9520;50.954;6.968;2022-11-12T02:32:50;102600.44;;;15.68;47.91
18784;BME280;9520;50.954;6.968;2022-11-12T02:33:30;102599.56;;;15.69;47.60
18784;BME280;9520;50.954;6.968;2022-11-12T02:34:10;102598.69;;;15.64;47.56
18784;BME280;9520;50.954;6.968;2022-11-12T02:34:51;102600.44;;;15.68;47.46
18784;BME280;9520;50.954;6.968;2022-11-12T02:35:32;102596.91;;;15.69;47.31
18784;BME280;9520;50.954;6.968;2022-11-12T02:36:12;102593.34;;;15.67;47.41
18784;BME280;9520;50.954;6.968;2022-11-12T02:36:53;102602.22;;;15.67;47.48
18784;BME280;9520;50.954;6.968;2022-11-12T02:37:33;102573.88;;;15.55;47.47
18784;BME280;9520;50.954;6.968;2022-11-12T02:38:14;102600.41;;;15.72;47.29
18784;BME280;9520;50.954;6.968;2022-11-12T02:38:55;102581.00;;;15.58;47.43
18784;BME280;9520;50.954;6.968;2022-11-12T02:39:36;102593.34;;;15.67;47.56
18784;BME280;9520;50.954;6.968;2022-11-12T02:40:18;102596.88;;;15.72;47.31
18784;BME280;9520;50.954;6.968;2022-11-12T02:40:59;102593.31;;;15.70;47.43
18784;BME280;9520;50.954;6.968;2022-11-12T02:41:39;102592.50;;;15.63;47.59
18784;BME280;9520;50.954;6.968;2022-11-12T02:42:20;102594.25;;;15.63;47.61
18784;BME280;9520;50.954;6.968;2022-11-12T02:43:00;102599.56;;;15.66;47.51
18784;BME280;9520;50.954;6.968;2022-11-12T02:43:41;102588.97;;;15.58;47.67
18784;BME280;9520;50.954;6.968;2022-11-12T02:44:22;102599.59;;;15.58;47.74
18784;BME280;9520;50.954;6.968;2022-11-12T02:45:04;102599.59;;;15.58;47.67
18784;BME280;9520;50.954;6.968;2022-11-12T02:45:45;102602.25;;;15.57;47.86
18784;BME280;9520;50.954;6.968;2022-11-12T02:46:25;102596.94;;;15.55;47.86
18784;BME280;9520;50.954;6.968;2022-11-12T02:47:06;102596.03;;;15.59;47.67
18784;BME280;9520;50.954;6.968;2022-11-12T02:47:47;102595.16;;;15.49;47.86
18784;BME280;9520;50.954;6.968;2022-11-12T02:48:27;102595.19;;;15.48;47.99
18784;BME280;9520;50.954;6.968;2022-11-12T02:49:08;102600.50;;;15.46;48.03
18784;BME280;9520;50.954;6.968;2022-11-12T02:49:49;102596.06;;;15.45;48.10
18784;BME280;9520;50.954;6.968;2022-11-12T02:50:29;102590.78;;;15.44;48.06
18784;BME280;9520;50.954;6.968;2022-11-12T02:51:10;102587.19;;;15.46;48.12
18784;BME280;9520;50.954;6.968;2022-11-12T02:51:50;102589.88;;;15.40;47.95
18784;BME280;9520;50.954;6.968;2022-11-12T02:52:31;102583.72;;;15.34;48.15
18784;BME280;9520;50.954;6.968;2022-11-12T02:53:12;102594.31;;;15.41;48.03
18784;BME280;9520;50.954;6.968;2022-11-12T02:53:52;102591.69;;;15.38;48.19
18784;BME280;9520;50.954;6.968;2022-11-12T02:54:33;102597.88;;;15.43;48.14
18784;BME280;9520;50.954;6.968;2022-11-12T02:55:14;102594.31;;;15.43;48.13
18784;BME280;9520;50.954;6.968;2022-11-12T02:55:55;102594.28;;;15.44;48.05
18784;BME280;9520;50.954;6.968;2022-11-12T02:56:36;102571.34;;;15.25;48.24
18784;BME280;9520;50.954;6.968;2022-11-12T02:57:17;102593.47;;;15.30;48.19
18784;BME280;9520;50.954;6.968;2022-11-12T02:57:58;102591.69;;;15.35;48.30
18784;BME280;9520;50.954;6.968;2022-11-12T02:58:38;102561.63;;;15.17;48.16
18784;BME280;9520;50.954;6.968;2022-11-12T02:59:19;102580.22;;;15.24;48.31
18784;BME280;9520;50.954;6.968;2022-11-12T03:00:00;102588.16;;;15.32;48.26
18784;BME280;9520;50.954;6.968;2022-11-12T03:00:40;102588.16;;;15.33;48.16
18784;BME280;9520;50.954;6.968;2022-11-12T03:01:21;102590.81;;;15.33;48.26
18784;BME280;9520;50.954;6.968;2022-11-12T03:02:02;102595.28;;;15.28;48.40
18784;BME280;9520;50.954;6.968;2022-11-12T03:02:42;102591.78;;;15.14;48.50
18784;BME280;9520;50.954;6.968;2022-11-12T03:03:37;102589.97;;;15.22;48.49
18784;BME280;9520;50.954;6.968;2022-11-12T03:04:18;102594.41;;;15.22;48.60
18784;BME280;9520;50.954;6.968;2022-11-12T03:04:59;102581.16;;;15.06;48.80
18784;BME280;9520;50.954;6.968;2022-11-12T03:05:39;102598.84;;;15.18;48.61
18784;BME280;9520;50.954;6.968;2022-11-12T03:06:19;102597.94;;;15.21;48.66
18784;BME280;9520;50.954;6.968;2022-11-12T03:07:01;102592.59;;;15.25;48.45
18784;BME280;9520;50.954;6.968;2022-11-12T03:07:41;102589.94;;;15.25;48.41
18784;BME280;9520;50.954;6.968;2022-11-12T03:08:22;102587.28;;;15.25;48.43
18784;BME280;9520;50.954;6.968;2022-11-12T03:09:03;102586.41;;;15.26;48.47
18784;BME280;9520;50.954;6.968;2022-11-12T03:09:44;102592.59;;;15.33;48.50
18784;BME280;9520;50.954;6.968;2022-11-12T03:10:25;102597.03;;;15.26;48.70
18784;BME280;9520;50.954;6.968;2022-11-12T03:11:09;102595.25;;;15.30;48.47
18784;BME280;9520;50.954;6.968;2022-11-12T03:11:49;102590.78;;;15.35;48.26
18784;BME280;9520;50.954;6.968;2022-11-12T03:12:31;102589.03;;;15.35;48.23
18784;BME280;9520;50.954;6.968;2022-11-12T03:13:11;102589.88;;;15.40;48.10
18784;BME280;9520;50.954;6.968;2022-11-12T03:13:52;102584.59;;;15.37;48.36
18784;BME280;9520;50.954;6.968;2022-11-12T03:14:33;102592.56;;;15.39;48.35
18784;BME280;9520;50.954;6.968;2022-11-12T03:15:13;102581.94;;;15.33;48.26
18784;BME280;9520;50.954;6.968;2022-11-12T03:15:58;102579.28;;;15.39;48.20
18784;BME280;9520;50.954;6.968;2022-11-12T03:16:39;102587.22;;;15.48;48.08
18784;BME280;9520;50.954;6.968;2022-11-12T03:17:19;102581.94;;;15.30;48.35
18784;BME280;9520;50.954;6.968;2022-11-12T03:18:00;102582.81;;;15.36;48.37
18784;BME280;9520;50.954;6.968;2022-11-12T03:18:41;102589.91;;;15.34;48.41
18784;BME280;9520;50.954;6.968;2022-11-12T03:19:21;102584.66;;;15.22;48.66
18784;BME280;9520;50.954;6.968;2022-11-12T03:20:02;102575.78;;;15.29;48.69
18784;BME280;9520;50.954;6.968;2022-11-12T03:20:43;102568.69;;;15.25;48.71
18784;BME280;9520;50.954;6.968;2022-11-12T03:21:23;102576.63;;;15.31;48.56
18784;BME280;9520;50.954;6.968;2022-11-12T03:22:04;102584.59;;;15.34;48.60
18784;BME280;9520;50.954;6.968;2022-11-12T03:22:54;102580.22;;;15.29;48.64
18784;BME280;9520;50.954;6.968;2022-11-12T03:23:34;102581.06;;;15.32;48.61
18784;BME280;9520;50.954;6.968;2022-11-12T03:24:15;102573.94;;;15.34;48.62
18784;BME280;9520;50.954;6.968;2022-11-12T03:24:56;102574.84;;;15.32;48.73
18784;BME280;9520;50.954;6.968;2022-11-12T03:25:36;102566.91;;;15.27;48.58
18784;BME280;9520;50.954;6.968;2022-11-12T03:26:19;102557.19;;;15.23;48.46
18784;BME280;9520;50.954;6.968;2022-11-12T03:26:59;102567.81;;;15.22;48.68
18784;BME280;9520;50.954;6.968;2022-11-12T03:27:39;102564.25;;;15.21;48.41
18784;BME280;9520;50.954;6.968;2022-11-12T03:28:21;102574.91;;;15.17;48.58
18784;BME280;9520;50.954;6.968;2022-11-12T03:29:01;102558.13;;;15.08;48.68
18784;BME280;9520;50.954;6.968;2022-11-12T03:29:42;102567.78;;;15.25;48.62
18784;BME280;9520;50.954;6.968;2022-11-12T03:30:25;102564.25;;;15.29;48.47
18784;BME280;9520;50.954;6.968;2022-11-12T03:31:05;102570.47;;;15.20;48.70
18784;BME280;9520;50.954;6.968;2022-11-12T03:31:46;102571.38;;;15.16;48.66
18784;BME280;9520;50.954;6.968;2022-11-12T03:32:27;102564.28;;;15.23;48.62
18784;BME280;9520;50.954;6.968;2022-11-12T03:33:09;102566.91;;;15.26;48.65
18784;BME280;9520;50.954;6.968;2022-11-12T03:33:50;102561.59;;;15.21;48.58
18784;BME280;9520;50.954;6.968;2022-11-12T03:34:31;102567.78;;;15.25;48.52
18784;BME280;9520;50.954;6.968;2022-11-12T03:35:12;102565.16;;;15.23;48.57
18784;BME280;9520;50.954;6.968;2022-11-12T03:35:52;102557.16;;;15.25;48.54
18784;BME280;9520;50.954;6.968;2022-11-12T03:36:32;102560.75;;;15.11;48.68
18784;BME280;9520;50.954;6.968;2022-11-12T03:37:13;102560.75;;;15.19;48.57
18784;BME280;9520;50.954;6.968;2022-11-12T03:37:54;102566.06;;;15.19;48.65
18784;BME280;9520;50.954;6.968;2022-11-12T03:38:34;102564.25;;;15.21;48.74
18784;BME280;9520;50.954;6.968;2022-11-12T03:39:15;102566.94;;;15.24;48.61
18784;BME280;9520;50.954;6.968;2022-11-12T03:39:55;102564.25;;;15.26;48.40
18784;BME280;9520;50.954;6.968;2022-11-12T03:40:36;102562.47;;;15.28;48.35
18784;BME280;9520;50.954;6.968;2022-11-12T03:41:18;102566.91;;;15.27;48.31